Aviation Digital Data Service (ADDS)

Output produced by METARs form (1718 UTC 27 July 2016)
found at http://aviationweather.gov/adds/metars/
 
KLAX 271457Z 2715/2818 26006KT P6SM FEW005 FEW010 SCT180 
     FM271700 25006KT P6SM SCT150 
     FM272100 26013KT P6SM SCT120 
     FM280400 26008KT P6SM SKC 
     FM280900 VRB03KT P6SM BKN006 
     FM281200 13004KT 6SM BR OVC008 
     FM281600 23005KT P6SM SCT010